sensor_id;sensor_type;location;lat;lon;timestamp;temperature;humidity
77693;SHT31;66984;47.404;18.836;2023-05-19T00:00:35;15.61;81.68
77693;SHT31;66984;47.404;18.836;2023-05-19T00:01:39;15.61;81.67
77693;SHT31;66984;47.404;18.836;2023-05-19T00:02:45;15.59;81.69
77693;SHT31;66984;47.404;18.836;2023-05-19T00:03:53;15.59;81.74
77693;SHT31;66984;47.404;18.836;2023-05-19T00:04:56;15.58;81.80
77693;SHT31;66984;47.404;18.836;2023-05-19T00:06:01;15.58;81.73
77693;SHT31;66984;47.404;18.836;2023-05-19T00:07:05;15.58;81.69
77693;SHT31;66984;47.404;18.836;2023-05-19T00:08:10;15.53;81.69
77693;SHT31;66984;47.404;18.836;2023-05-19T00:09:13;15.53;81.59
77693;SHT31;66984;47.404;18.836;2023-05-19T00:10:17;15.52;81.59
77693;SHT31;66984;47.404;18.836;2023-05-19T00:11:20;15.53;81.61
77693;SHT31;66984;47.404;18.836;2023-05-19T00:12:24;15.52;81.61
77693;SHT31;66984;47.404;18.836;2023-05-19T00:13:28;15.48;81.71
77693;SHT31;66984;47.404;18.836;2023-05-19T00:14:31;15.42;81.72
77693;SHT31;66984;47.404;18.836;2023-05-19T00:15:34;15.41;81.60
77693;SHT31;66984;47.404;18.836;2023-05-19T00:16:38;15.43;81.66
77693;SHT31;66984;47.404;18.836;2023-05-19T00:17:41;15.43;81.60
77693;SHT31;66984;47.404;18.836;2023-05-19T00:18:44;15.41;81.42
77693;SHT31;66984;47.404;18.836;2023-05-19T00:19:47;15.39;81.15
77693;SHT31;66984;47.404;18.836;2023-05-19T00:20:50;15.36;81.12
77693;SHT31;66984;47.404;18.836;2023-05-19T00:21:54;15.31;81.25
77693;SHT31;66984;47.404;18.836;2023-05-19T00:22:56;15.30;81.25
77693;SHT31;66984;47.404;18.836;2023-05-19T00:23:59;15.31;81.30
77693;SHT31;66984;47.404;18.836;2023-05-19T00:25:03;15.32;81.23
77693;SHT31;66984;47.404;18.836;2023-05-19T00:26:07;15.31;81.14
77693;SHT31;66984;47.404;18.836;2023-05-19T00:27:10;15.30;81.03
77693;SHT31;66984;47.404;18.836;2023-05-19T00:28:13;15.25;80.65
77693;SHT31;66984;47.404;18.836;2023-05-19T00:29:16;15.27;80.44
77693;SHT31;66984;47.404;18.836;2023-05-19T00:30:20;15.22;80.02
77693;SHT31;66984;47.404;18.836;2023-05-19T00:31:24;15.21;79.18
77693;SHT31;66984;47.404;18.836;2023-05-19T00:32:27;15.17;79.00
77693;SHT31;66984;47.404;18.836;2023-05-19T00:33:30;15.17;78.34
77693;SHT31;66984;47.404;18.836;2023-05-19T00:34:35;15.14;78.31
77693;SHT31;66984;47.404;18.836;2023-05-19T00:35:38;15.08;77.37
77693;SHT31;66984;47.404;18.836;2023-05-19T00:36:42;15.04;77.16
77693;SHT31;66984;47.404;18.836;2023-05-19T00:37:45;15.01;77.12
77693;SHT31;66984;47.404;18.836;2023-05-19T00:38:48;15.01;77.25
77693;SHT31;66984;47.404;18.836;2023-05-19T00:39:52;15.01;77.47
77693;SHT31;66984;47.404;18.836;2023-05-19T00:40:55;15.00;77.63
77693;SHT31;66984;47.404;18.836;2023-05-19T00:41:58;14.98;77.59
77693;SHT31;66984;47.404;18.836;2023-05-19T00:43:01;15.00;76.92
77693;SHT31;66984;47.404;18.836;2023-05-19T00:44:05;14.98;76.91
77693;SHT31;66984;47.404;18.836;2023-05-19T00:45:08;14.97;77.08
77693;SHT31;66984;47.404;18.836;2023-05-19T00:46:12;14.98;76.93
77693;SHT31;66984;47.404;18.836;2023-05-19T00:47:15;14.95;76.66
77693;SHT31;66984;47.404;18.836;2023-05-19T00:48:18;14.87;76.01
77693;SHT31;66984;47.404;18.836;2023-05-19T00:49:21;14.87;76.14
77693;SHT31;66984;47.404;18.836;2023-05-19T00:50:24;14.90;76.18
77693;SHT31;66984;47.404;18.836;2023-05-19T00:51:29;14.87;76.25
77693;SHT31;66984;47.404;18.836;2023-05-19T00:52:32;14.88;76.15
77693;SHT31;66984;47.404;18.836;2023-05-19T00:53:35;14.87;76.22
77693;SHT31;66984;47.404;18.836;2023-05-19T00:54:38;14.85;76.28
77693;SHT31;66984;47.404;18.836;2023-05-19T00:55:41;14.80;75.88
77693;SHT31;66984;47.404;18.836;2023-05-19T00:56:44;14.84;76.17
77693;SHT31;66984;47.404;18.836;2023-05-19T00:57:48;14.84;76.41
77693;SHT31;66984;47.404;18.836;2023-05-19T00:58:52;14.83;76.51
77693;SHT31;66984;47.404;18.836;2023-05-19T00:59:55;14.84;76.40
77693;SHT31;66984;47.404;18.836;2023-05-19T01:00:59;14.83;76.42
77693;SHT31;66984;47.404;18.836;2023-05-19T01:02:05;14.81;76.45
77693;SHT31;66984;47.404;18.836;2023-05-19T01:03:09;14.83;76.28
77693;SHT31;66984;47.404;18.836;2023-05-19T01:04:20;14.83;76.29
77693;SHT31;66984;47.404;18.836;2023-05-19T01:05:23;14.84;76.37
77693;SHT31;66984;47.404;18.836;2023-05-19T01:06:26;14.87;76.39
77693;SHT31;66984;47.404;18.836;2023-05-19T01:07:29;14.84;76.22
77693;SHT31;66984;47.404;18.836;2023-05-19T01:08:34;14.83;76.17
77693;SHT31;66984;47.404;18.836;2023-05-19T01:09:37;14.87;75.95
77693;SHT31;66984;47.404;18.836;2023-05-19T01:10:42;14.88;75.99
77693;SHT31;66984;47.404;18.836;2023-05-19T01:11:45;14.85;76.08
77693;SHT31;66984;47.404;18.836;2023-05-19T01:12:48;14.85;76.26
77693;SHT31;66984;47.404;18.836;2023-05-19T01:13:51;14.88;76.47
77693;SHT31;66984;47.404;18.836;2023-05-19T01:14:54;14.90;76.77
77693;SHT31;66984;47.404;18.836;2023-05-19T01:17:10;14.90;77.01
77693;SHT31;66984;47.404;18.836;2023-05-19T01:18:24;14.90;77.09
77693;SHT31;66984;47.404;18.836;2023-05-19T01:21:02;14.93;77.24
77693;SHT31;66984;47.404;18.836;2023-05-19T01:23:38;14.94;77.50
77693;SHT31;66984;47.404;18.836;2023-05-19T01:24:48;14.93;77.32
77693;SHT31;66984;47.404;18.836;2023-05-19T01:31:22;14.84;77.80
77693;SHT31;66984;47.404;18.836;2023-05-19T01:32:28;14.87;78.03
77693;SHT31;66984;47.404;18.836;2023-05-19T01:33:32;14.84;78.04
77693;SHT31;66984;47.404;18.836;2023-05-19T01:34:41;14.84;78.01
77693;SHT31;66984;47.404;18.836;2023-05-19T01:35:46;14.83;77.98
77693;SHT31;66984;47.404;18.836;2023-05-19T01:36:50;14.81;78.01
77693;SHT31;66984;47.404;18.836;2023-05-19T01:37:56;14.81;77.92
77693;SHT31;66984;47.404;18.836;2023-05-19T01:39:00;14.79;78.01
77693;SHT31;66984;47.404;18.836;2023-05-19T01:40:05;14.81;78.14
77693;SHT31;66984;47.404;18.836;2023-05-19T01:41:10;14.83;78.22
77693;SHT31;66984;47.404;18.836;2023-05-19T01:42:14;14.83;78.27
77693;SHT31;66984;47.404;18.836;2023-05-19T01:43:21;14.81;78.39
77693;SHT31;66984;47.404;18.836;2023-05-19T01:44:25;14.83;78.44
77693;SHT31;66984;47.404;18.836;2023-05-19T01:45:30;14.84;78.38
77693;SHT31;66984;47.404;18.836;2023-05-19T01:46:33;14.84;78.40
77693;SHT31;66984;47.404;18.836;2023-05-19T01:47:40;14.87;78.37
77693;SHT31;66984;47.404;18.836;2023-05-19T01:48:44;14.88;78.28
77693;SHT31;66984;47.404;18.836;2023-05-19T01:49:47;14.90;78.22
77693;SHT31;66984;47.404;18.836;2023-05-19T01:50:50;14.87;78.22
77693;SHT31;66984;47.404;18.836;2023-05-19T01:51:53;14.83;78.35
77693;SHT31;66984;47.404;18.836;2023-05-19T01:52:57;14.85;78.39
77693;SHT31;66984;47.404;18.836;2023-05-19T01:54:00;14.87;78.37
77693;SHT31;66984;47.404;18.836;2023-05-19T01:55:04;14.88;78.21
77693;SHT31;66984;47.404;18.836;2023-05-19T01:56:07;14.87;78.09
77693;SHT31;66984;47.404;18.836;2023-05-19T01:57:20;14.88;77.94
77693;SHT31;66984;47.404;18.836;2023-05-19T01:58:38;14.84;77.98
77693;SHT31;66984;47.404;18.836;2023-05-19T02:00:07;14.84;78.06
77693;SHT31;66984;47.404;18.836;2023-05-19T02:02:33;14.87;78.07
77693;SHT31;66984;47.404;18.836;2023-05-19T02:05:38;14.80;78.33
77693;SHT31;66984;47.404;18.836;2023-05-19T02:06:48;14.83;78.48
77693;SHT31;66984;47.404;18.836;2023-05-19T02:07:57;14.84;78.57
77693;SHT31;66984;47.404;18.836;2023-05-19T02:09:11;14.79;78.60
77693;SHT31;66984;47.404;18.836;2023-05-19T02:10:21;14.83;78.61
77693;SHT31;66984;47.404;18.836;2023-05-19T02:11:37;14.81;78.57
77693;SHT31;66984;47.404;18.836;2023-05-19T02:12:43;14.80;78.68
77693;SHT31;66984;47.404;18.836;2023-05-19T02:13:49;14.79;78.76
77693;SHT31;66984;47.404;18.836;2023-05-19T02:15:25;14.77;78.77
77693;SHT31;66984;47.404;18.836;2023-05-19T02:16:30;14.74;78.83
77693;SHT31;66984;47.404;18.836;2023-05-19T02:17:37;14.77;78.80
77693;SHT31;66984;47.404;18.836;2023-05-19T02:18:44;14.76;78.78
77693;SHT31;66984;47.404;18.836;2023-05-19T02:19:47;14.79;78.77
77693;SHT31;66984;47.404;18.836;2023-05-19T02:20:50;14.77;78.70
77693;SHT31;66984;47.404;18.836;2023-05-19T02:21:53;14.80;78.64
77693;SHT31;66984;47.404;18.836;2023-05-19T02:22:56;14.80;78.54
77693;SHT31;66984;47.404;18.836;2023-05-19T02:23:59;14.79;78.50
77693;SHT31;66984;47.404;18.836;2023-05-19T02:25:02;14.80;78.55
77693;SHT31;66984;47.404;18.836;2023-05-19T02:26:05;14.79;78.54
77693;SHT31;66984;47.404;18.836;2023-05-19T02:27:10;14.79;78.47
77693;SHT31;66984;47.404;18.836;2023-05-19T02:28:13;14.79;78.55
77693;SHT31;66984;47.404;18.836;2023-05-19T02:29:16;14.83;78.54
77693;SHT31;66984;47.404;18.836;2023-05-19T02:30:19;14.80;78.34
77693;SHT31;66984;47.404;18.836;2023-05-19T02:31:21;14.80;78.19
77693;SHT31;66984;47.404;18.836;2023-05-19T02:32:24;14.80;78.10
77693;SHT31;66984;47.404;18.836;2023-05-19T02:33:27;14.81;77.99
77693;SHT31;66984;47.404;18.836;2023-05-19T02:34:31;14.80;77.71
77693;SHT31;66984;47.404;18.836;2023-05-19T02:35:34;14.80;77.51
77693;SHT31;66984;47.404;18.836;2023-05-19T02:36:39;14.83;77.35
77693;SHT31;66984;47.404;18.836;2023-05-19T02:37:44;14.81;77.22
77693;SHT31;66984;47.404;18.836;2023-05-19T02:38:47;14.77;77.28
77693;SHT31;66984;47.404;18.836;2023-05-19T02:39:50;14.77;77.49
77693;SHT31;66984;47.404;18.836;2023-05-19T02:40:53;14.74;77.56
77693;SHT31;66984;47.404;18.836;2023-05-19T02:41:56;14.73;77.72
77693;SHT31;66984;47.404;18.836;2023-05-19T02:42:59;14.74;77.67
77693;SHT31;66984;47.404;18.836;2023-05-19T02:44:02;14.76;77.56
77693;SHT31;66984;47.404;18.836;2023-05-19T02:45:05;14.74;77.42
77693;SHT31;66984;47.404;18.836;2023-05-19T02:46:08;14.73;77.48
77693;SHT31;66984;47.404;18.836;2023-05-19T02:47:14;14.73;77.60
77693;SHT31;66984;47.404;18.836;2023-05-19T02:48:17;14.72;77.60
77693;SHT31;66984;47.404;18.836;2023-05-19T02:49:20;14.73;77.50
77693;SHT31;66984;47.404;18.836;2023-05-19T02:50:23;14.77;77.47
77693;SHT31;66984;47.404;18.836;2023-05-19T02:51:26;14.74;77.45
77693;SHT31;66984;47.404;18.836;2023-05-19T02:52:29;14.73;77.52
77693;SHT31;66984;47.404;18.836;2023-05-19T02:53:32;14.73;77.63
77693;SHT31;66984;47.404;18.836;2023-05-19T02:54:35;14.72;77.65
77693;SHT31;66984;47.404;18.836;2023-05-19T02:55:37;14.70;77.69
77693;SHT31;66984;47.404;18.836;2023-05-19T02:56:40;14.70;77.80
77693;SHT31;66984;47.404;18.836;2023-05-19T02:57:43;14.72;77.87
77693;SHT31;66984;47.404;18.836;2023-05-19T02:58:46;14.72;77.90
77693;SHT31;66984;47.404;18.836;2023-05-19T02:59:49;14.72;77.83
77693;SHT31;66984;47.404;18.836;2023-05-19T03:00:52;14.70;77.88
77693;SHT31;66984;47.404;18.836;2023-05-19T03:02:00;14.67;78.01
77693;SHT31;66984;47.404;18.836;2023-05-19T03:03:03;14.70;78.06
77693;SHT31;66984;47.404;18.836;2023-05-19T03:04:06;14.66;78.14
77693;SHT31;66984;47.404;18.836;2023-05-19T03:05:09;14.66;78.11
77693;SHT31;66984;47.404;18.836;2023-05-19T03:06:12;14.67;78.08
77693;SHT31;66984;47.404;18.836;2023-05-19T03:07:15;14.69;78.10
77693;SHT31;66984;47.404;18.836;2023-05-19T03:08:19;14.69;78.13
77693;SHT31;66984;47.404;18.836;2023-05-19T03:09:22;14.67;78.03
77693;SHT31;66984;47.404;18.836;2023-05-19T03:10:25;14.63;78.04
77693;SHT31;66984;47.404;18.836;2023-05-19T03:11:28;14.62;78.19
77693;SHT31;66984;47.404;18.836;2023-05-19T03:12:32;14.62;78.32
77693;SHT31;66984;47.404;18.836;2023-05-19T03:13:35;14.60;78.40
77693;SHT31;66984;47.404;18.836;2023-05-19T03:14:38;14.59;78.39
77693;SHT31;66984;47.404;18.836;2023-05-19T03:15:41;14.57;78.41
77693;SHT31;66984;47.404;18.836;2023-05-19T03:16:44;14.55;78.29
77693;SHT31;66984;47.404;18.836;2023-05-19T03:17:47;14.55;78.16
77693;SHT31;66984;47.404;18.836;2023-05-19T03:18:50;14.49;77.85
77693;SHT31;66984;47.404;18.836;2023-05-19T03:19:54;14.45;77.83
77693;SHT31;66984;47.404;18.836;2023-05-19T03:20:57;14.42;77.79
77693;SHT31;66984;47.404;18.836;2023-05-19T03:22:00;14.39;77.83
77693;SHT31;66984;47.404;18.836;2023-05-19T03:23:03;14.39;77.81
77693;SHT31;66984;47.404;18.836;2023-05-19T03:24:06;14.39;77.82
77693;SHT31;66984;47.404;18.836;2023-05-19T03:25:09;14.39;77.85
77693;SHT31;66984;47.404;18.836;2023-05-19T03:26:12;14.37;77.89
77693;SHT31;66984;47.404;18.836;2023-05-19T03:27:15;14.39;77.93
77693;SHT31;66984;47.404;18.836;2023-05-19T03:28:18;14.37;77.96
77693;SHT31;66984;47.404;18.836;2023-05-19T03:29:21;14.35;78.13
77693;SHT31;66984;47.404;18.836;2023-05-19T03:30:24;14.36;78.16
77693;SHT31;66984;47.404;18.836;2023-05-19T03:31:27;14.39;78.15
77693;SHT31;66984;47.404;18.836;2023-05-19T03:32:32;14.36;78.17
77693;SHT31;66984;47.404;18.836;2023-05-19T03:33:35;14.35;78.20
77693;SHT31;66984;47.404;18.836;2023-05-19T03:34:38;14.35;78.28
77693;SHT31;66984;47.404;18.836;2023-05-19T03:35:41;14.35;78.47
77693;SHT31;66984;47.404;18.836;2023-05-19T03:36:45;14.32;78.55
77693;SHT31;66984;47.404;18.836;2023-05-19T03:37:51;14.33;78.57
77693;SHT31;66984;47.404;18.836;2023-05-19T03:38:54;14.35;78.58
77693;SHT31;66984;47.404;18.836;2023-05-19T03:39:58;14.35;78.55
77693;SHT31;66984;47.404;18.836;2023-05-19T03:41:01;14.35;78.56
77693;SHT31;66984;47.404;18.836;2023-05-19T03:42:04;14.39;78.59
77693;SHT31;66984;47.404;18.836;2023-05-19T03:43:07;14.42;78.66
77693;SHT31;66984;47.404;18.836;2023-05-19T03:44:10;14.42;78.71
77693;SHT31;66984;47.404;18.836;2023-05-19T03:45:13;14.43;78.70
77693;SHT31;66984;47.404;18.836;2023-05-19T03:46:16;14.42;78.73
77693;SHT31;66984;47.404;18.836;2023-05-19T03:47:19;14.46;78.77
77693;SHT31;66984;47.404;18.836;2023-05-19T03:48:22;14.47;78.82
77693;SHT31;66984;47.404;18.836;2023-05-19T03:49:25;14.47;78.85
77693;SHT31;66984;47.404;18.836;2023-05-19T03:50:27;14.47;78.96
77693;SHT31;66984;47.404;18.836;2023-05-19T03:51:33;14.47;79.00
77693;SHT31;66984;47.404;18.836;2023-05-19T03:52:36;14.49;79.01
77693;SHT31;66984;47.404;18.836;2023-05-19T03:53:40;14.52;79.01
77693;SHT31;66984;47.404;18.836;2023-05-19T03:54:42;14.50;79.04
77693;SHT31;66984;47.404;18.836;2023-05-19T03:55:46;14.49;79.11
77693;SHT31;66984;47.404;18.836;2023-05-19T03:56:51;14.50;79.24
77693;SHT31;66984;47.404;18.836;2023-05-19T03:57:54;14.47;79.36
77693;SHT31;66984;47.404;18.836;2023-05-19T03:58:57;14.43;79.55
77693;SHT31;66984;47.404;18.836;2023-05-19T04:00:01;14.43;79.80
77693;SHT31;66984;47.404;18.836;2023-05-19T04:01:05;14.40;79.98
77693;SHT31;66984;47.404;18.836;2023-05-19T04:02:08;14.42;79.97
77693;SHT31;66984;47.404;18.836;2023-05-19T04:03:11;14.42;79.96
77693;SHT31;66984;47.404;18.836;2023-05-19T04:04:14;14.46;79.93
77693;SHT31;66984;47.404;18.836;2023-05-19T04:05:17;14.46;79.82
77693;SHT31;66984;47.404;18.836;2023-05-19T04:06:20;14.49;79.75
77693;SHT31;66984;47.404;18.836;2023-05-19T04:07:23;14.49;79.71
77693;SHT31;66984;47.404;18.836;2023-05-19T04:08:26;14.50;79.62
77693;SHT31;66984;47.404;18.836;2023-05-19T04:09:29;14.53;79.54
77693;SHT31;66984;47.404;18.836;2023-05-19T04:10:34;14.55;79.47
77693;SHT31;66984;47.404;18.836;2023-05-19T04:11:36;14.50;79.50
77693;SHT31;66984;47.404;18.836;2023-05-19T04:12:41;14.55;79.52
77693;SHT31;66984;47.404;18.836;2023-05-19T04:13:44;14.53;79.52
77693;SHT31;66984;47.404;18.836;2023-05-19T04:14:47;14.53;79.48
77693;SHT31;66984;47.404;18.836;2023-05-19T04:15:50;14.53;79.46
77693;SHT31;66984;47.404;18.836;2023-05-19T04:16:53;14.55;79.48
77693;SHT31;66984;47.404;18.836;2023-05-19T04:17:56;14.57;79.46
77693;SHT31;66984;47.404;18.836;2023-05-19T04:18:59;14.57;79.42
77693;SHT31;66984;47.404;18.836;2023-05-19T04:20:03;14.59;79.48
77693;SHT31;66984;47.404;18.836;2023-05-19T04:21:07;14.59;79.54
77693;SHT31;66984;47.404;18.836;2023-05-19T04:22:10;14.60;79.54
77693;SHT31;66984;47.404;18.836;2023-05-19T04:23:13;14.60;79.54
77693;SHT31;66984;47.404;18.836;2023-05-19T04:24:16;14.62;79.56
77693;SHT31;66984;47.404;18.836;2023-05-19T04:25:19;14.64;79.65
77693;SHT31;66984;47.404;18.836;2023-05-19T04:26:22;14.63;79.73
77693;SHT31;66984;47.404;18.836;2023-05-19T04:27:26;14.62;79.78
77693;SHT31;66984;47.404;18.836;2023-05-19T04:28:30;14.66;79.81
77693;SHT31;66984;47.404;18.836;2023-05-19T04:29:33;14.64;79.82
77693;SHT31;66984;47.404;18.836;2023-05-19T04:30:37;14.69;79.82
77693;SHT31;66984;47.404;18.836;2023-05-19T04:31:40;14.69;79.61
77693;SHT31;66984;47.404;18.836;2023-05-19T04:32:43;14.70;79.43
77693;SHT31;66984;47.404;18.836;2023-05-19T04:33:46;14.69;79.31
77693;SHT31;66984;47.404;18.836;2023-05-19T04:34:52;14.73;79.15
77693;SHT31;66984;47.404;18.836;2023-05-19T04:35:55;14.72;79.05
77693;SHT31;66984;47.404;18.836;2023-05-19T04:36:58;14.69;79.06
77693;SHT31;66984;47.404;18.836;2023-05-19T04:38:01;14.67;79.06
77693;SHT31;66984;47.404;18.836;2023-05-19T04:39:04;14.70;78.88
77693;SHT31;66984;47.404;18.836;2023-05-19T04:40:11;14.76;78.67
77693;SHT31;66984;47.404;18.836;2023-05-19T04:41:14;14.77;78.03
77693;SHT31;66984;47.404;18.836;2023-05-19T04:42:18;14.80;77.31
77693;SHT31;66984;47.404;18.836;2023-05-19T04:43:21;14.80;77.22
77693;SHT31;66984;47.404;18.836;2023-05-19T04:44:24;14.80;77.16
77693;SHT31;66984;47.404;18.836;2023-05-19T04:45:27;14.84;77.11
77693;SHT31;66984;47.404;18.836;2023-05-19T04:46:30;14.83;77.00
77693;SHT31;66984;47.404;18.836;2023-05-19T04:47:34;14.84;77.11
77693;SHT31;66984;47.404;18.836;2023-05-19T04:48:40;14.88;77.24
77693;SHT31;66984;47.404;18.836;2023-05-19T04:49:43;14.87;77.34
77693;SHT31;66984;47.404;18.836;2023-05-19T04:50:49;14.88;77.45
77693;SHT31;66984;47.404;18.836;2023-05-19T04:51:53;14.88;77.55
77693;SHT31;66984;47.404;18.836;2023-05-19T04:52:58;14.88;77.57
77693;SHT31;66984;47.404;18.836;2023-05-19T04:54:02;14.90;77.60
77693;SHT31;66984;47.404;18.836;2023-05-19T04:55:05;14.91;77.65
77693;SHT31;66984;47.404;18.836;2023-05-19T04:56:09;14.93;77.74
77693;SHT31;66984;47.404;18.836;2023-05-19T04:57:15;15.00;77.85
77693;SHT31;66984;47.404;18.836;2023-05-19T04:58:18;14.95;78.03
77693;SHT31;66984;47.404;18.836;2023-05-19T04:59:21;15.00;78.05
77693;SHT31;66984;47.404;18.836;2023-05-19T05:00:25;15.00;78.07
77693;SHT31;66984;47.404;18.836;2023-05-19T05:01:28;15.01;78.07
77693;SHT31;66984;47.404;18.836;2023-05-19T05:02:32;15.01;78.10
77693;SHT31;66984;47.404;18.836;2023-05-19T05:03:35;15.05;78.14
77693;SHT31;66984;47.404;18.836;2023-05-19T05:04:39;15.01;78.19
77693;SHT31;66984;47.404;18.836;2023-05-19T05:05:45;15.03;78.15
77693;SHT31;66984;47.404;18.836;2023-05-19T05:06:48;15.03;78.11
77693;SHT31;66984;47.404;18.836;2023-05-19T05:07:51;15.05;77.61
77693;SHT31;66984;47.404;18.836;2023-05-19T05:08:55;15.04;77.63
77693;SHT31;66984;47.404;18.836;2023-05-19T05:09:58;15.04;77.75
77693;SHT31;66984;47.404;18.836;2023-05-19T05:11:01;15.04;77.67
77693;SHT31;66984;47.404;18.836;2023-05-19T05:12:05;15.08;77.63
77693;SHT31;66984;47.404;18.836;2023-05-19T05:13:09;15.10;77.65
77693;SHT31;66984;47.404;18.836;2023-05-19T05:14:12;15.11;77.57
77693;SHT31;66984;47.404;18.836;2023-05-19T05:15:16;15.17;77.99
77693;SHT31;66984;47.404;18.836;2023-05-19T05:16:19;15.18;78.19
77693;SHT31;66984;47.404;18.836;2023-05-19T05:17:23;15.21;78.12
77693;SHT31;66984;47.404;18.836;2023-05-19T05:18:27;15.25;77.94
77693;SHT31;66984;47.404;18.836;2023-05-19T05:19:31;15.27;77.79
77693;SHT31;66984;47.404;18.836;2023-05-19T05:20:34;15.28;77.75
77693;SHT31;66984;47.404;18.836;2023-05-19T05:21:37;15.28;77.65
77693;SHT31;66984;47.404;18.836;2023-05-19T05:22:40;15.32;77.56
77693;SHT31;66984;47.404;18.836;2023-05-19T05:23:43;15.35;77.37
77693;SHT31;66984;47.404;18.836;2023-05-19T05:24:47;15.34;77.22
77693;SHT31;66984;47.404;18.836;2023-05-19T05:25:51;15.34;77.10
77693;SHT31;66984;47.404;18.836;2023-05-19T05:26:54;15.34;77.09
77693;SHT31;66984;47.404;18.836;2023-05-19T05:27:57;15.35;77.02
77693;SHT31;66984;47.404;18.836;2023-05-19T05:29:01;15.36;76.95
77693;SHT31;66984;47.404;18.836;2023-05-19T05:30:05;15.41;76.96
77693;SHT31;66984;47.404;18.836;2023-05-19T05:31:08;15.41;76.89
77693;SHT31;66984;47.404;18.836;2023-05-19T05:32:11;15.42;76.87
77693;SHT31;66984;47.404;18.836;2023-05-19T05:33:14;15.45;76.87
77693;SHT31;66984;47.404;18.836;2023-05-19T05:34:17;15.49;76.97
77693;SHT31;66984;47.404;18.836;2023-05-19T05:35:22;15.49;76.98
77693;SHT31;66984;47.404;18.836;2023-05-19T05:36:25;15.53;77.04
77693;SHT31;66984;47.404;18.836;2023-05-19T05:37:29;15.55;77.05
77693;SHT31;66984;47.404;18.836;2023-05-19T05:38:32;15.55;77.07
77693;SHT31;66984;47.404;18.836;2023-05-19T05:39:35;15.55;77.09
77693;SHT31;66984;47.404;18.836;2023-05-19T05:40:38;15.56;77.09
77693;SHT31;66984;47.404;18.836;2023-05-19T05:41:41;15.61;76.96
77693;SHT31;66984;47.404;18.836;2023-05-19T05:42:44;15.59;76.80
77693;SHT31;66984;47.404;18.836;2023-05-19T05:43:47;15.63;76.67
77693;SHT31;66984;47.404;18.836;2023-05-19T05:44:50;15.63;76.65
77693;SHT31;66984;47.404;18.836;2023-05-19T05:45:53;15.67;76.71
77693;SHT31;66984;47.404;18.836;2023-05-19T05:46:56;15.70;76.78
77693;SHT31;66984;47.404;18.836;2023-05-19T05:47:59;15.69;76.81
77693;SHT31;66984;47.404;18.836;2023-05-19T05:49:02;15.76;76.79
77693;SHT31;66984;47.404;18.836;2023-05-19T05:50:07;15.76;76.40
77693;SHT31;66984;47.404;18.836;2023-05-19T05:51:11;15.78;76.22
77693;SHT31;66984;47.404;18.836;2023-05-19T05:52:14;15.79;76.51
77693;SHT31;66984;47.404;18.836;2023-05-19T05:53:20;15.79;77.15
77693;SHT31;66984;47.404;18.836;2023-05-19T05:54:23;15.78;77.18
77693;SHT31;66984;47.404;18.836;2023-05-19T05:55:26;15.85;77.24
77693;SHT31;66984;47.404;18.836;2023-05-19T05:56:29;15.83;76.65
77693;SHT31;66984;47.404;18.836;2023-05-19T05:57:35;15.89;76.65
77693;SHT31;66984;47.404;18.836;2023-05-19T05:58:38;15.93;76.70
77693;SHT31;66984;47.404;18.836;2023-05-19T05:59:42;15.94;76.68
77693;SHT31;66984;47.404;18.836;2023-05-19T06:00:46;15.96;76.48
77693;SHT31;66984;47.404;18.836;2023-05-19T06:01:50;16.01;76.62
77693;SHT31;66984;47.404;18.836;2023-05-19T06:02:53;16.03;76.66
77693;SHT31;66984;47.404;18.836;2023-05-19T06:03:56;16.06;76.86
77693;SHT31;66984;47.404;18.836;2023-05-19T06:04:59;16.10;76.86
77693;SHT31;66984;47.404;18.836;2023-05-19T06:06:03;16.16;76.82
77693;SHT31;66984;47.404;18.836;2023-05-19T06:07:06;16.20;76.71
77693;SHT31;66984;47.404;18.836;2023-05-19T06:08:09;16.20;76.71
77693;SHT31;66984;47.404;18.836;2023-05-19T06:09:12;16.22;76.61
77693;SHT31;66984;47.404;18.836;2023-05-19T06:10:14;16.24;76.56
77693;SHT31;66984;47.404;18.836;2023-05-19T06:11:18;16.27;76.55
77693;SHT31;66984;47.404;18.836;2023-05-19T06:12:21;16.28;76.55
77693;SHT31;66984;47.404;18.836;2023-05-19T06:13:24;16.28;76.64
77693;SHT31;66984;47.404;18.836;2023-05-19T06:14:27;16.28;76.68
77693;SHT31;66984;47.404;18.836;2023-05-19T06:15:30;16.31;76.69
77693;SHT31;66984;47.404;18.836;2023-05-19T06:16:33;16.30;76.92
77693;SHT31;66984;47.404;18.836;2023-05-19T06:17:36;16.24;76.89
77693;SHT31;66984;47.404;18.836;2023-05-19T06:18:39;16.30;76.91
77693;SHT31;66984;47.404;18.836;2023-05-19T06:19:42;16.27;76.78
77693;SHT31;66984;47.404;18.836;2023-05-19T06:20:45;16.30;76.81
77693;SHT31;66984;47.404;18.836;2023-05-19T06:21:48;16.30;76.85
77693;SHT31;66984;47.404;18.836;2023-05-19T06:22:51;16.34;76.90
77693;SHT31;66984;47.404;18.836;2023-05-19T06:23:54;16.35;77.19
77693;SHT31;66984;47.404;18.836;2023-05-19T06:24:57;16.41;77.13
77693;SHT31;66984;47.404;18.836;2023-05-19T06:26:00;16.42;76.01
77693;SHT31;66984;47.404;18.836;2023-05-19T06:27:03;16.42;75.52
77693;SHT31;66984;47.404;18.836;2023-05-19T06:28:06;16.49;75.63
77693;SHT31;66984;47.404;18.836;2023-05-19T06:29:09;16.52;75.92
77693;SHT31;66984;47.404;18.836;2023-05-19T06:30:12;16.55;76.18
77693;SHT31;66984;47.404;18.836;2023-05-19T06:31:15;16.59;75.52
77693;SHT31;66984;47.404;18.836;2023-05-19T06:32:18;16.59;75.36
77693;SHT31;66984;47.404;18.836;2023-05-19T06:33:21;16.59;75.32
77693;SHT31;66984;47.404;18.836;2023-05-19T06:34:27;16.65;75.45
77693;SHT31;66984;47.404;18.836;2023-05-19T06:35:30;16.68;75.93
77693;SHT31;66984;47.404;18.836;2023-05-19T06:36:33;16.76;76.30
77693;SHT31;66984;47.404;18.836;2023-05-19T06:37:37;16.79;76.51
77693;SHT31;66984;47.404;18.836;2023-05-19T06:38:40;16.86;76.30
77693;SHT31;66984;47.404;18.836;2023-05-19T06:39:43;16.89;75.84
77693;SHT31;66984;47.404;18.836;2023-05-19T06:40:46;16.93;75.93
77693;SHT31;66984;47.404;18.836;2023-05-19T06:41:49;16.96;75.66
77693;SHT31;66984;47.404;18.836;2023-05-19T06:42:52;17.02;75.18
77693;SHT31;66984;47.404;18.836;2023-05-19T06:43:55;17.06;75.43
77693;SHT31;66984;47.404;18.836;2023-05-19T06:44:58;17.03;75.76
77693;SHT31;66984;47.404;18.836;2023-05-19T06:46:01;17.09;74.58
77693;SHT31;66984;47.404;18.836;2023-05-19T06:47:04;17.12;74.34
77693;SHT31;66984;47.404;18.836;2023-05-19T06:48:07;17.12;74.01
77693;SHT31;66984;47.404;18.836;2023-05-19T06:49:10;17.16;73.90
77693;SHT31;66984;47.404;18.836;2023-05-19T06:50:13;17.17;74.77